sensor_id;sensor_type;location;lat;lon;timestamp;P1;P2;P0
77413;PMS7003;66486;49.992;19.164;2023-02-15T00:01:24;105.50;80.25;48.75
77413;PMS7003;66486;49.992;19.164;2023-02-15T00:03:50;113.50;92.50;48.75
77413;PMS7003;66486;49.992;19.164;2023-02-15T00:06:16;118.25;103.25;52.75
77413;PMS7003;66486;49.992;19.164;2023-02-15T00:08:43;136.75;111.75;54.75
77413;PMS7003;66486;49.992;19.164;2023-02-15T00:11:11;107.75;82.75;42.00
77413;PMS7003;66486;49.992;19.164;2023-02-15T00:13:39;128.25;105.25;52.00
77413;PMS7003;66486;49.992;19.164;2023-02-15T00:16:09;118.50;102.75;54.00
77413;PMS7003;66486;49.992;19.164;2023-02-15T00:18:40;130.75;113.50;54.75
77413;PMS7003;66486;49.992;19.164;2023-02-15T00:21:07;107.25;88.00;49.00
77413;PMS7003;66486;49.992;19.164;2023-02-15T00:23:35;117.00;105.50;54.00
77413;PMS7003;66486;49.992;19.164;2023-02-15T00:26:08;127.50;112.50;51.75
77413;PMS7003;66486;49.992;19.164;2023-02-15T00:28:35;130.25;109.50;51.75
77413;PMS7003;66486;49.992;19.164;2023-02-15T00:31:08;121.50;94.75;49.50
77413;PMS7003;66486;49.992;19.164;2023-02-15T00:33:36;115.00;97.25;51.00
77413;PMS7003;66486;49.992;19.164;2023-02-15T00:36:03;115.25;87.50;44.75
77413;PMS7003;66486;49.992;19.164;2023-02-15T00:38:31;130.25;106.00;53.00
77413;PMS7003;66486;49.992;19.164;2023-02-15T00:40:59;120.75;100.75;51.00
77413;PMS7003;66486;49.992;19.164;2023-02-15T00:43:27;101.50;75.25;43.00
77413;PMS7003;66486;49.992;19.164;2023-02-15T00:45:53;117.25;98.75;51.00
77413;PMS7003;66486;49.992;19.164;2023-02-15T00:48:20;105.50;76.75;38.75
77413;PMS7003;66486;49.992;19.164;2023-02-15T00:50:51;103.25;74.75;42.00
77413;PMS7003;66486;49.992;19.164;2023-02-15T00:53:18;111.00;87.75;49.00
77413;PMS7003;66486;49.992;19.164;2023-02-15T00:55:45;119.00;90.75;48.00
77413;PMS7003;66486;49.992;19.164;2023-02-15T00:58:11;119.00;96.75;51.00
77413;PMS7003;66486;49.992;19.164;2023-02-15T01:00:38;105.25;82.50;50.50
77413;PMS7003;66486;49.992;19.164;2023-02-15T01:03:05;112.25;92.00;50.50
77413;PMS7003;66486;49.992;19.164;2023-02-15T01:05:31;108.25;79.50;47.00
77413;PMS7003;66486;49.992;19.164;2023-02-15T01:07:58;105.75;80.50;47.25
77413;PMS7003;66486;49.992;19.164;2023-02-15T01:10:24;81.50;67.25;40.00
77413;PMS7003;66486;49.992;19.164;2023-02-15T01:12:52;111.00;88.75;48.00
77413;PMS7003;66486;49.992;19.164;2023-02-15T01:15:18;112.25;87.50;47.25
77413;PMS7003;66486;49.992;19.164;2023-02-15T01:17:45;105.25;83.75;44.25
77413;PMS7003;66486;49.992;19.164;2023-02-15T01:20:16;81.67;67.33;41.33
77413;PMS7003;66486;49.992;19.164;2023-02-15T01:22:43;94.50;71.25;42.00
77413;PMS7003;66486;49.992;19.164;2023-02-15T01:25:09;107.00;85.50;46.00
77413;PMS7003;66486;49.992;19.164;2023-02-15T01:27:35;75.75;60.50;38.75
77413;PMS7003;66486;49.992;19.164;2023-02-15T01:30:01;74.25;59.25;40.00
77413;PMS7003;66486;49.992;19.164;2023-02-15T01:32:30;79.50;62.25;34.50
77413;PMS7003;66486;49.992;19.164;2023-02-15T01:34:56;89.33;67.67;39.00
77413;PMS7003;66486;49.992;19.164;2023-02-15T01:37:22;78.75;61.25;36.50
77413;PMS7003;66486;49.992;19.164;2023-02-15T01:39:48;87.33;68.33;36.00
77413;PMS7003;66486;49.992;19.164;2023-02-15T01:42:14;86.50;69.50;40.00
77413;PMS7003;66486;49.992;19.164;2023-02-15T01:47:40;78.67;65.33;39.00
77413;PMS7003;66486;49.992;19.164;2023-02-15T01:50:14;94.00;75.33;42.33
77413;PMS7003;66486;49.992;19.164;2023-02-15T01:53:01;58.50;50.25;25.25
77413;PMS7003;66486;49.992;19.164;2023-02-15T01:55:38;78.75;63.00;37.50
77413;PMS7003;66486;49.992;19.164;2023-02-15T01:58:08;72.00;58.25;38.75
77413;PMS7003;66486;49.992;19.164;2023-02-15T02:00:34;86.00;66.67;39.00
77413;PMS7003;66486;49.992;19.164;2023-02-15T02:03:01;80.00;64.50;34.00
77413;PMS7003;66486;49.992;19.164;2023-02-15T02:05:28;72.75;60.25;37.00
77413;PMS7003;66486;49.992;19.164;2023-02-15T02:07:56;75.25;61.00;35.75
77413;PMS7003;66486;49.992;19.164;2023-02-15T02:10:24;86.50;68.50;36.50
77413;PMS7003;66486;49.992;19.164;2023-02-15T02:12:54;66.75;54.75;31.00
77413;PMS7003;66486;49.992;19.164;2023-02-15T02:15:24;77.00;62.50;34.50
77413;PMS7003;66486;49.992;19.164;2023-02-15T02:20:59;77.50;62.00;36.00
77413;PMS7003;66486;49.992;19.164;2023-02-15T02:31:30;70.00;57.00;32.33
77413;PMS7003;66486;49.992;19.164;2023-02-15T02:36:50;71.50;57.75;31.50
77413;PMS7003;66486;49.992;19.164;2023-02-15T02:42:21;68.50;52.00;30.50
77413;PMS7003;66486;49.992;19.164;2023-02-15T02:45:28;69.25;54.50;31.00
77413;PMS7003;66486;49.992;19.164;2023-02-15T02:47:58;47.25;44.75;26.75
77413;PMS7003;66486;49.992;19.164;2023-02-15T02:50:29;62.25;52.75;31.25
77413;PMS7003;66486;49.992;19.164;2023-02-15T02:52:56;52.50;44.50;24.50
77413;PMS7003;66486;49.992;19.164;2023-02-15T02:58:09;49.25;42.50;19.50
77413;PMS7003;66486;49.992;19.164;2023-02-15T03:00:40;47.00;39.50;26.75
77413;PMS7003;66486;49.992;19.164;2023-02-15T03:03:16;60.00;48.00;29.50
77413;PMS7003;66486;49.992;19.164;2023-02-15T03:05:59;67.50;54.25;30.75
77413;PMS7003;66486;49.992;19.164;2023-02-15T03:08:30;38.75;34.50;24.25
77413;PMS7003;66486;49.992;19.164;2023-02-15T03:11:03;42.00;35.25;13.75
77413;PMS7003;66486;49.992;19.164;2023-02-15T03:13:30;34.25;34.25;22.75
77413;PMS7003;66486;49.992;19.164;2023-02-15T03:15:57;49.00;45.00;26.75
77413;PMS7003;66486;49.992;19.164;2023-02-15T03:18:48;63.00;50.75;29.50
77413;PMS7003;66486;49.992;19.164;2023-02-15T03:21:50;47.25;44.00;25.00
77413;PMS7003;66486;49.992;19.164;2023-02-15T03:24:32;43.50;38.50;19.00
77413;PMS7003;66486;49.992;19.164;2023-02-15T03:27:04;41.75;36.00;19.00
77413;PMS7003;66486;49.992;19.164;2023-02-15T03:29:36;47.25;41.75;23.75
77413;PMS7003;66486;49.992;19.164;2023-02-15T03:32:04;44.50;40.50;21.00
77413;PMS7003;66486;49.992;19.164;2023-02-15T03:34:34;37.75;32.75;20.25
77413;PMS7003;66486;49.992;19.164;2023-02-15T03:39:47;43.00;37.75;21.75
77413;PMS7003;66486;49.992;19.164;2023-02-15T03:42:24;24.25;24.25;14.75
77413;PMS7003;66486;49.992;19.164;2023-02-15T03:44:57;30.25;24.25;10.50
77413;PMS7003;66486;49.992;19.164;2023-02-15T03:47:28;48.25;43.00;23.25
77413;PMS7003;66486;49.992;19.164;2023-02-15T03:49:59;28.25;27.25;16.00
77413;PMS7003;66486;49.992;19.164;2023-02-15T03:52:28;53.50;47.50;26.75
77413;PMS7003;66486;49.992;19.164;2023-02-15T03:54:56;41.75;38.00;21.75
77413;PMS7003;66486;49.992;19.164;2023-02-15T03:57:24;41.75;37.50;18.50
77413;PMS7003;66486;49.992;19.164;2023-02-15T04:00:19;47.75;43.00;22.00
77413;PMS7003;66486;49.992;19.164;2023-02-15T04:05:43;35.50;31.25;12.00
77413;PMS7003;66486;49.992;19.164;2023-02-15T04:08:10;50.00;43.75;21.25
77413;PMS7003;66486;49.992;19.164;2023-02-15T04:10:37;46.00;41.25;26.25
77413;PMS7003;66486;49.992;19.164;2023-02-15T04:13:21;40.75;38.75;20.75
77413;PMS7003;66486;49.992;19.164;2023-02-15T04:15:48;35.00;34.50;16.50
77413;PMS7003;66486;49.992;19.164;2023-02-15T04:18:34;48.25;44.00;24.75
77413;PMS7003;66486;49.992;19.164;2023-02-15T04:21:19;50.75;46.00;23.75
77413;PMS7003;66486;49.992;19.164;2023-02-15T04:24:05;48.75;45.00;27.00
77413;PMS7003;66486;49.992;19.164;2023-02-15T04:26:50;31.75;25.00;13.25
77413;PMS7003;66486;49.992;19.164;2023-02-15T04:29:19;61.75;52.00;28.25
77413;PMS7003;66486;49.992;19.164;2023-02-15T04:31:45;69.00;56.50;32.50
77413;PMS7003;66486;49.992;19.164;2023-02-15T04:34:11;61.75;52.50;31.50
77413;PMS7003;66486;49.992;19.164;2023-02-15T04:36:38;34.00;30.33;9.33
77413;PMS7003;66486;49.992;19.164;2023-02-15T04:39:05;76.33;60.67;36.00
77413;PMS7003;66486;49.992;19.164;2023-02-15T04:41:31;74.50;60.75;36.00
77413;PMS7003;66486;49.992;19.164;2023-02-15T04:43:58;61.25;52.50;31.75
77413;PMS7003;66486;49.992;19.164;2023-02-15T04:46:26;59.75;49.50;31.75
77413;PMS7003;66486;49.992;19.164;2023-02-15T04:48:52;65.00;52.00;28.00
77413;PMS7003;66486;49.992;19.164;2023-02-15T04:51:18;47.50;44.00;23.50
77413;PMS7003;66486;49.992;19.164;2023-02-15T04:53:44;36.00;34.00;19.00
77413;PMS7003;66486;49.992;19.164;2023-02-15T04:56:10;53.00;44.00;25.67
77413;PMS7003;66486;49.992;19.164;2023-02-15T04:58:37;52.75;45.50;25.50
77413;PMS7003;66486;49.992;19.164;2023-02-15T05:01:06;48.00;43.50;25.25
77413;PMS7003;66486;49.992;19.164;2023-02-15T05:03:34;50.50;43.50;26.00
77413;PMS7003;66486;49.992;19.164;2023-02-15T05:06:00;44.00;36.50;19.75
77413;PMS7003;66486;49.992;19.164;2023-02-15T05:08:27;35.25;34.50;18.25
77413;PMS7003;66486;49.992;19.164;2023-02-15T05:10:52;43.00;41.33;18.33
77413;PMS7003;66486;49.992;19.164;2023-02-15T05:13:19;42.00;38.25;17.00
77413;PMS7003;66486;49.992;19.164;2023-02-15T05:15:48;42.33;40.67;21.33
77413;PMS7003;66486;49.992;19.164;2023-02-15T05:18:18;41.25;36.25;22.25
77413;PMS7003;66486;49.992;19.164;2023-02-15T05:20:45;40.00;37.25;23.50
77413;PMS7003;66486;49.992;19.164;2023-02-15T05:23:11;34.75;31.75;20.50
77413;PMS7003;66486;49.992;19.164;2023-02-15T05:25:37;45.33;43.67;21.33
77413;PMS7003;66486;49.992;19.164;2023-02-15T05:28:23;31.75;27.00;18.00
77413;PMS7003;66486;49.992;19.164;2023-02-15T05:30:57;40.00;35.50;21.25
77413;PMS7003;66486;49.992;19.164;2023-02-15T05:33:29;43.50;40.25;24.25
77413;PMS7003;66486;49.992;19.164;2023-02-15T05:35:55;41.00;37.25;20.75
77413;PMS7003;66486;49.992;19.164;2023-02-15T05:38:22;51.50;43.25;23.25
77413;PMS7003;66486;49.992;19.164;2023-02-15T05:40:47;57.67;46.33;19.67
77413;PMS7003;66486;49.992;19.164;2023-02-15T05:43:13;49.33;44.33;21.00
77413;PMS7003;66486;49.992;19.164;2023-02-15T05:45:39;52.67;44.33;24.00
77413;PMS7003;66486;49.992;19.164;2023-02-15T05:48:05;57.67;49.33;25.33
77413;PMS7003;66486;49.992;19.164;2023-02-15T05:50:31;44.33;42.33;22.33
77413;PMS7003;66486;49.992;19.164;2023-02-15T05:52:57;41.25;37.75;15.25
77413;PMS7003;66486;49.992;19.164;2023-02-15T05:55:23;55.00;46.00;26.67
77413;PMS7003;66486;49.992;19.164;2023-02-15T05:57:49;56.33;49.00;29.33
77413;PMS7003;66486;49.992;19.164;2023-02-15T06:00:15;50.33;44.33;22.67
77413;PMS7003;66486;49.992;19.164;2023-02-15T06:02:41;55.00;47.50;27.75
77413;PMS7003;66486;49.992;19.164;2023-02-15T06:05:07;51.33;41.67;20.33
77413;PMS7003;66486;49.992;19.164;2023-02-15T06:07:34;65.50;53.00;30.00
77413;PMS7003;66486;49.992;19.164;2023-02-15T06:10:00;54.67;48.00;30.00
77413;PMS7003;66486;49.992;19.164;2023-02-15T06:12:26;63.33;49.33;30.00
77413;PMS7003;66486;49.992;19.164;2023-02-15T06:14:52;61.33;52.33;30.00
77413;PMS7003;66486;49.992;19.164;2023-02-15T06:17:18;66.67;53.33;31.33
77413;PMS7003;66486;49.992;19.164;2023-02-15T06:19:44;52.67;48.33;27.33
77413;PMS7003;66486;49.992;19.164;2023-02-15T06:22:10;55.33;49.33;27.67
77413;PMS7003;66486;49.992;19.164;2023-02-15T06:24:35;54.00;48.25;29.75
77413;PMS7003;66486;49.992;19.164;2023-02-15T06:27:02;67.67;51.33;30.00
77413;PMS7003;66486;49.992;19.164;2023-02-15T06:29:27;66.75;52.75;30.00
77413;PMS7003;66486;49.992;19.164;2023-02-15T06:31:54;52.00;43.33;28.33
77413;PMS7003;66486;49.992;19.164;2023-02-15T06:34:19;52.67;49.33;29.67
77413;PMS7003;66486;49.992;19.164;2023-02-15T06:36:45;63.33;52.33;30.33
77413;PMS7003;66486;49.992;19.164;2023-02-15T06:39:11;50.33;40.33;14.67
77413;PMS7003;66486;49.992;19.164;2023-02-15T06:41:38;60.67;48.00;29.33
77413;PMS7003;66486;49.992;19.164;2023-02-15T06:44:04;56.75;48.50;33.00
77413;PMS7003;66486;49.992;19.164;2023-02-15T06:46:30;62.75;44.50;23.00
77413;PMS7003;66486;49.992;19.164;2023-02-15T06:48:56;58.00;48.33;29.33
77413;PMS7003;66486;49.992;19.164;2023-02-15T06:51:22;42.33;37.67;17.33
77413;PMS7003;66486;49.992;19.164;2023-02-15T06:53:48;48.00;42.00;21.67
77413;PMS7003;66486;49.992;19.164;2023-02-15T06:56:14;59.67;50.67;30.00
77413;PMS7003;66486;49.992;19.164;2023-02-15T06:58:40;46.00;42.00;23.33
77413;PMS7003;66486;49.992;19.164;2023-02-15T07:01:08;52.00;46.67;30.00
77413;PMS7003;66486;49.992;19.164;2023-02-15T07:03:34;39.25;37.00;21.50
77413;PMS7003;66486;49.992;19.164;2023-02-15T07:06:01;46.50;44.25;22.50
77413;PMS7003;66486;49.992;19.164;2023-02-15T07:08:31;62.33;49.00;30.00
77413;PMS7003;66486;49.992;19.164;2023-02-15T07:10:57;53.50;47.75;25.00
77413;PMS7003;66486;49.992;19.164;2023-02-15T07:13:43;49.00;43.75;25.50
77413;PMS7003;66486;49.992;19.164;2023-02-15T07:16:09;53.75;46.50;25.00
77413;PMS7003;66486;49.992;19.164;2023-02-15T07:18:35;51.50;44.25;25.25
77413;PMS7003;66486;49.992;19.164;2023-02-15T07:21:01;49.50;46.00;27.25
77413;PMS7003;66486;49.992;19.164;2023-02-15T07:23:28;41.25;34.50;19.00
77413;PMS7003;66486;49.992;19.164;2023-02-15T07:25:57;43.50;39.50;24.00
77413;PMS7003;66486;49.992;19.164;2023-02-15T07:28:27;34.00;30.00;14.25
77413;PMS7003;66486;49.992;19.164;2023-02-15T07:30:53;42.00;39.00;21.25
77413;PMS7003;66486;49.992;19.164;2023-02-15T07:33:19;51.00;46.33;23.33
77413;PMS7003;66486;49.992;19.164;2023-02-15T07:35:50;15.00;15.00;12.50
77413;PMS7003;66486;49.992;19.164;2023-02-15T07:38:17;29.00;26.25;19.25
77413;PMS7003;66486;49.992;19.164;2023-02-15T07:40:44;31.00;26.00;15.00
77413;PMS7003;66486;49.992;19.164;2023-02-15T07:43:10;25.75;21.75;13.50
77413;PMS7003;66486;49.992;19.164;2023-02-15T07:45:37;29.00;29.00;18.00
77413;PMS7003;66486;49.992;19.164;2023-02-15T07:48:04;39.50;38.00;20.00
77413;PMS7003;66486;49.992;19.164;2023-02-15T07:50:31;37.75;33.50;18.25
77413;PMS7003;66486;49.992;19.164;2023-02-15T07:52:57;33.50;30.00;16.50
77413;PMS7003;66486;49.992;19.164;2023-02-15T07:55:24;31.50;30.25;19.00
77413;PMS7003;66486;49.992;19.164;2023-02-15T07:57:50;29.67;27.67;18.00
77413;PMS7003;66486;49.992;19.164;2023-02-15T08:00:17;33.75;31.25;15.00
77413;PMS7003;66486;49.992;19.164;2023-02-15T08:02:50;32.75;27.75;15.75
77413;PMS7003;66486;49.992;19.164;2023-02-15T08:05:37;29.50;24.00;15.75
77413;PMS7003;66486;49.992;19.164;2023-02-15T08:08:08;26.75;26.75;15.75
77413;PMS7003;66486;49.992;19.164;2023-02-15T08:10:37;28.25;24.50;14.00
77413;PMS7003;66486;49.992;19.164;2023-02-15T08:13:29;21.50;21.25;13.50
77413;PMS7003;66486;49.992;19.164;2023-02-15T08:15:55;31.00;29.75;14.75
77413;PMS7003;66486;49.992;19.164;2023-02-15T08:18:21;17.33;12.67;10.00
77413;PMS7003;66486;49.992;19.164;2023-02-15T08:20:50;30.75;28.25;15.50
77413;PMS7003;66486;49.992;19.164;2023-02-15T08:23:16;31.25;27.25;17.75
77413;PMS7003;66486;49.992;19.164;2023-02-15T08:25:42;25.25;23.00;11.00
77413;PMS7003;66486;49.992;19.164;2023-02-15T08:28:08;33.67;31.67;19.00
77413;PMS7003;66486;49.992;19.164;2023-02-15T08:30:34;29.50;27.50;17.50
77413;PMS7003;66486;49.992;19.164;2023-02-15T08:33:00;35.33;29.33;18.00
77413;PMS7003;66486;49.992;19.164;2023-02-15T08:35:26;29.75;25.75;15.00
77413;PMS7003;66486;49.992;19.164;2023-02-15T08:37:52;20.33;20.33;12.67
77413;PMS7003;66486;49.992;19.164;2023-02-15T08:40:18;29.00;28.25;16.50
77413;PMS7003;66486;49.992;19.164;2023-02-15T08:42:44;34.75;28.00;15.00
77413;PMS7003;66486;49.992;19.164;2023-02-15T08:45:10;32.00;29.75;17.00
77413;PMS7003;66486;49.992;19.164;2023-02-15T08:47:36;34.00;25.00;18.67
77413;PMS7003;66486;49.992;19.164;2023-02-15T08:50:02;33.25;29.50;18.00
77413;PMS7003;66486;49.992;19.164;2023-02-15T08:52:29;29.20;27.20;16.00
77413;PMS7003;66486;49.992;19.164;2023-02-15T08:54:55;35.00;29.00;16.50
77413;PMS7003;66486;49.992;19.164;2023-02-15T08:57:21;26.50;26.00;15.25
77413;PMS7003;66486;49.992;19.164;2023-02-15T08:59:47;27.40;26.60;15.20
77413;PMS7003;66486;49.992;19.164;2023-02-15T09:02:14;23.75;23.75;14.00
77413;PMS7003;66486;49.992;19.164;2023-02-15T09:04:40;29.00;26.25;16.50
77413;PMS7003;66486;49.992;19.164;2023-02-15T09:07:06;29.75;27.75;15.00
77413;PMS7003;66486;49.992;19.164;2023-02-15T09:09:32;30.60;28.00;17.20
77413;PMS7003;66486;49.992;19.164;2023-02-15T09:11:58;32.00;30.25;17.00
77413;PMS7003;66486;49.992;19.164;2023-02-15T09:14:25;23.80;21.60;15.60
77413;PMS7003;66486;49.992;19.164;2023-02-15T09:16:52;21.20;18.80;12.80
77413;PMS7003;66486;49.992;19.164;2023-02-15T09:19:19;28.20;25.80;9.80
77413;PMS7003;66486;49.992;19.164;2023-02-15T09:21:47;42.60;35.20;19.80
77413;PMS7003;66486;49.992;19.164;2023-02-15T09:24:14;22.00;22.00;11.60
77413;PMS7003;66486;49.992;19.164;2023-02-15T09:26:42;35.00;32.25;20.75
77413;PMS7003;66486;49.992;19.164;2023-02-15T09:29:10;33.80;32.60;15.60
77413;PMS7003;66486;49.992;19.164;2023-02-15T09:31:39;27.60;27.60;17.60
77413;PMS7003;66486;49.992;19.164;2023-02-15T09:34:11;32.40;30.80;16.40
77413;PMS7003;66486;49.992;19.164;2023-02-15T09:36:38;25.60;22.20;14.60
77413;PMS7003;66486;49.992;19.164;2023-02-15T09:39:19;33.00;30.40;16.00
77413;PMS7003;66486;49.992;19.164;2023-02-15T09:54:54;32.00;28.60;14.00
77413;PMS7003;66486;49.992;19.164;2023-02-15T10:00:35;36.80;31.00;16.40
77413;PMS7003;66486;49.992;19.164;2023-02-15T10:05:54;27.00;26.20;15.40
77413;PMS7003;66486;49.992;19.164;2023-02-15T10:28:16;32.40;27.80;15.00
77413;PMS7003;66486;49.992;19.164;2023-02-15T10:55:34;33.40;31.40;16.40
77413;PMS7003;66486;49.992;19.164;2023-02-15T11:03:52;32.80;30.00;19.40
77413;PMS7003;66486;49.992;19.164;2023-02-15T11:06:35;39.00;37.20;19.60
77413;PMS7003;66486;49.992;19.164;2023-02-15T11:09:09;36.60;35.60;19.40
77413;PMS7003;66486;49.992;19.164;2023-02-15T11:11:39;32.80;28.80;16.40
77413;PMS7003;66486;49.992;19.164;2023-02-15T11:14:13;34.40;33.00;18.20
77413;PMS7003;66486;49.992;19.164;2023-02-15T11:16:47;30.60;27.20;13.80
77413;PMS7003;66486;49.992;19.164;2023-02-15T11:19:19;37.60;36.80;21.20
77413;PMS7003;66486;49.992;19.164;2023-02-15T11:21:50;31.00;29.40;15.40
77413;PMS7003;66486;49.992;19.164;2023-02-15T11:24:21;23.20;22.40;10.00
77413;PMS7003;66486;49.992;19.164;2023-02-15T11:26:54;38.60;36.60;22.80
77413;PMS7003;66486;49.992;19.164;2023-02-15T11:29:26;36.00;35.80;18.20
77413;PMS7003;66486;49.992;19.164;2023-02-15T11:32:04;27.20;25.60;16.60
77413;PMS7003;66486;49.992;19.164;2023-02-15T11:35:31;31.00;30.20;17.20
77413;PMS7003;66486;49.992;19.164;2023-02-15T11:38:20;34.40;31.60;18.20
77413;PMS7003;66486;49.992;19.164;2023-02-15T11:40:51;31.60;30.00;17.60
77413;PMS7003;66486;49.992;19.164;2023-02-15T11:43:31;63.40;52.80;29.60
77413;PMS7003;66486;49.992;19.164;2023-02-15T11:46:02;33.40;28.80;18.60
77413;PMS7003;66486;49.992;19.164;2023-02-15T11:48:29;34.80;32.40;19.00
77413;PMS7003;66486;49.992;19.164;2023-02-15T11:50:57;33.00;30.00;16.00
77413;PMS7003;66486;49.992;19.164;2023-02-15T11:53:24;36.40;35.80;18.60
77413;PMS7003;66486;49.992;19.164;2023-02-15T11:55:54;36.60;36.60;21.20
77413;PMS7003;66486;49.992;19.164;2023-02-15T12:06:53;37.20;29.20;16.40
77413;PMS7003;66486;49.992;19.164;2023-02-15T12:09:40;38.40;35.00;21.40
77413;PMS7003;66486;49.992;19.164;2023-02-15T12:14:57;35.00;33.20;18.40
77413;PMS7003;66486;49.992;19.164;2023-02-15T12:17:31;31.40;25.80;15.00
77413;PMS7003;66486;49.992;19.164;2023-02-15T12:20:05;29.60;28.20;15.00
77413;PMS7003;66486;49.992;19.164;2023-02-15T12:22:54;41.20;38.60;21.00
77413;PMS7003;66486;49.992;19.164;2023-02-15T12:33:50;37.20;37.20;21.60
77413;PMS7003;66486;49.992;19.164;2023-02-15T12:36:53;38.20;36.20;19.00
77413;PMS7003;66486;49.992;19.164;2023-02-15T12:47:04;43.60;39.00;19.00
77413;PMS7003;66486;49.992;19.164;2023-02-15T12:49:42;45.60;41.40;24.60
77413;PMS7003;66486;49.992;19.164;2023-02-15T12:54:50;28.40;25.00;15.00
77413;PMS7003;66486;49.992;19.164;2023-02-15T12:57:29;31.80;27.60;18.60
77413;PMS7003;66486;49.992;19.164;2023-02-15T13:02:42;31.80;29.20;15.80
77413;PMS7003;66486;49.992;19.164;2023-02-15T13:07:57;43.40;39.00;23.20
77413;PMS7003;66486;49.992;19.164;2023-02-15T13:10:30;31.20;29.60;21.20
77413;PMS7003;66486;49.992;19.164;2023-02-15T13:13:00;33.00;32.00;20.20
77413;PMS7003;66486;49.992;19.164;2023-02-15T13:15:30;35.20;34.00;20.20
77413;PMS7003;66486;49.992;19.164;2023-02-15T13:18:01;35.00;33.60;19.40
77413;PMS7003;66486;49.992;19.164;2023-02-15T13:20:28;30.80;28.80;9.00
77413;PMS7003;66486;49.992;19.164;2023-02-15T13:23:00;30.00;28.00;16.20
77413;PMS7003;66486;49.992;19.164;2023-02-15T13:25:37;37.80;34.60;18.60
77413;PMS7003;66486;49.992;19.164;2023-02-15T13:28:12;37.80;30.20;16.00
77413;PMS7003;66486;49.992;19.164;2023-02-15T13:30:47;29.20;27.00;15.20
77413;PMS7003;66486;49.992;19.164;2023-02-15T13:33:34;35.60;30.00;18.20
77413;PMS7003;66486;49.992;19.164;2023-02-15T13:36:07;28.20;26.60;16.00
77413;PMS7003;66486;49.992;19.164;2023-02-15T13:41:33;30.40;29.20;18.00
77413;PMS7003;66486;49.992;19.164;2023-02-15T13:44:15;33.00;31.80;18.20
77413;PMS7003;66486;49.992;19.164;2023-02-15T13:47:21;28.40;26.60;17.80
77413;PMS7003;66486;49.992;19.164;2023-02-15T13:50:03;29.20;27.20;15.80
77413;PMS7003;66486;49.992;19.164;2023-02-15T13:55:40;36.20;31.80;19.40
77413;PMS7003;66486;49.992;19.164;2023-02-15T14:01:35;31.20;29.40;19.00
77413;PMS7003;66486;49.992;19.164;2023-02-15T14:04:27;29.60;26.80;19.00
77413;PMS7003;66486;49.992;19.164;2023-02-15T14:09:48;31.80;30.80;18.00
77413;PMS7003;66486;49.992;19.164;2023-02-15T14:26:20;37.80;34.80;21.20
77413;PMS7003;66486;49.992;19.164;2023-02-15T14:31:42;39.40;36.00;21.20
77413;PMS7003;66486;49.992;19.164;2023-02-15T14:34:19;34.40;31.00;19.00
77413;PMS7003;66486;49.992;19.164;2023-02-15T14:37:08;25.40;25.40;16.80
77413;PMS7003;66486;49.992;19.164;2023-02-15T14:43:01;34.80;34.80;18.60
77413;PMS7003;66486;49.992;19.164;2023-02-15T14:45:54;31.60;29.80;15.40
77413;PMS7003;66486;49.992;19.164;2023-02-15T14:48:26;24.80;23.40;12.60
77413;PMS7003;66486;49.992;19.164;2023-02-15T14:51:04;33.20;30.60;18.80
77413;PMS7003;66486;49.992;19.164;2023-02-15T15:01:30;31.20;29.40;21.20
77413;PMS7003;66486;49.992;19.164;2023-02-15T15:04:00;37.40;33.60;19.40
77413;PMS7003;66486;49.992;19.164;2023-02-15T15:06:38;32.00;29.40;15.60
77413;PMS7003;66486;49.992;19.164;2023-02-15T15:09:20;26.80;26.80;17.20
77413;PMS7003;66486;49.992;19.164;2023-02-15T15:11:49;33.40;30.00;20.20
77413;PMS7003;66486;49.992;19.164;2023-02-15T15:17:02;2.60;0.00;0.00
77413;PMS7003;66486;49.992;19.164;2023-02-15T15:22:21;28.80;28.80;21.00
77413;PMS7003;66486;49.992;19.164;2023-02-15T15:24:55;35.00;30.60;13.40
77413;PMS7003;66486;49.992;19.164;2023-02-15T15:47:49;37.40;33.80;18.20
77413;PMS7003;66486;49.992;19.164;2023-02-15T15:50:27;33.20;29.80;14.80
77413;PMS7003;66486;49.992;19.164;2023-02-15T15:52:53;32.25;29.25;15.75
77413;PMS7003;66486;49.992;19.164;2023-02-15T15:55:23;38.00;34.80;20.20
77413;PMS7003;66486;49.992;19.164;2023-02-15T15:57:59;39.60;38.20;22.00
77413;PMS7003;66486;49.992;19.164;2023-02-15T16:02:58;37.00;32.40;14.60
77413;PMS7003;66486;49.992;19.164;2023-02-15T16:05:24;26.20;25.00;19.80
77413;PMS7003;66486;49.992;19.164;2023-02-15T16:07:50;41.00;35.20;22.00
77413;PMS7003;66486;49.992;19.164;2023-02-15T16:10:20;41.40;36.80;24.40
77413;PMS7003;66486;49.992;19.164;2023-02-15T16:12:47;27.60;23.60;13.40
77413;PMS7003;66486;49.992;19.164;2023-02-15T16:15:30;28.20;26.40;10.80
77413;PMS7003;66486;49.992;19.164;2023-02-15T16:18:01;39.80;36.20;21.40
77413;PMS7003;66486;49.992;19.164;2023-02-15T16:20:33;40.40;34.20;18.00
77413;PMS7003;66486;49.992;19.164;2023-02-15T16:26:05;27.40;25.60;15.40
77413;PMS7003;66486;49.992;19.164;2023-02-15T16:28:52;36.40;31.80;19.00
77413;PMS7003;66486;49.992;19.164;2023-02-15T16:31:20;33.80;31.80;18.20
77413;PMS7003;66486;49.992;19.164;2023-02-15T16:33:48;28.00;26.60;19.80
77413;PMS7003;66486;49.992;19.164;2023-02-15T16:41:25;25.20;24.20;15.20
77413;PMS7003;66486;49.992;19.164;2023-02-15T16:43:54;25.75;24.00;13.25
77413;PMS7003;66486;49.992;19.164;2023-02-15T16:46:28;38.50;35.75;20.50
77413;PMS7003;66486;49.992;19.164;2023-02-15T16:49:05;42.40;36.00;18.80
77413;PMS7003;66486;49.992;19.164;2023-02-15T16:51:43;28.20;27.60;16.00
77413;PMS7003;66486;49.992;19.164;2023-02-15T16:54:18;22.75;22.75;15.50
77413;PMS7003;66486;49.992;19.164;2023-02-15T16:56:47;36.25;34.25;21.00
77413;PMS7003;66486;49.992;19.164;2023-02-15T16:59:21;39.50;35.00;17.50
77413;PMS7003;66486;49.992;19.164;2023-02-15T17:02:06;17.20;15.40;3.00
77413;PMS7003;66486;49.992;19.164;2023-02-15T17:07:42;34.00;32.25;16.00
77413;PMS7003;66486;49.992;19.164;2023-02-15T17:10:26;36.00;33.00;19.00
77413;PMS7003;66486;49.992;19.164;2023-02-15T17:15:39;38.50;32.00;15.00
77413;PMS7003;66486;49.992;19.164;2023-02-15T17:18:11;35.25;34.00;21.00
77413;PMS7003;66486;49.992;19.164;2023-02-15T17:20:44;38.50;36.25;21.00
77413;PMS7003;66486;49.992;19.164;2023-02-15T17:26:02;36.00;34.25;19.50
77413;PMS7003;66486;49.992;19.164;2023-02-15T17:28:58;55.25;45.50;27.00
77413;PMS7003;66486;49.992;19.164;2023-02-15T17:31:30;69.25;56.50;29.50
77413;PMS7003;66486;49.992;19.164;2023-02-15T17:33:59;50.00;45.25;24.25